createdAt,value
2023-02-15T00:01:36.910Z,97298.66
2023-02-15T00:04:04.072Z,97290.88
2023-02-15T00:06:30.636Z,97278.91
2023-02-15T00:08:57.043Z,97293.78
2023-02-15T00:11:41.892Z,97298.19
2023-02-15T00:14:08.869Z,97292.97
2023-02-15T00:16:35.484Z,97279.16
2023-02-15T00:19:02.976Z,97279.16
2023-02-15T00:21:30.898Z,97266.16
2023-02-15T00:23:58.034Z,97265.41
2023-02-15T00:26:24.485Z,97270.53
2023-02-15T00:28:50.852Z,97275.69
2023-02-15T00:31:17.353Z,97284.28
2023-02-15T00:33:43.939Z,97287.88
2023-02-15T00:36:10.636Z,97279.28
2023-02-15T00:38:37.165Z,97274.25
2023-02-15T00:41:05.019Z,97238.84
2023-02-15T00:43:32.195Z,97215.56
2023-02-15T00:45:58.683Z,97172.44
2023-02-15T00:48:25.331Z,97144.03
2023-02-15T00:50:53.498Z,97145.13
2023-02-15T00:53:20.020Z,97115.91
2023-02-15T00:55:46.681Z,97072.13
2023-02-15T00:58:13.543Z,97013.69
2023-02-15T01:00:39.967Z,96973.38
2023-02-15T01:03:07.205Z,96963.16
2023-02-15T01:05:33.573Z,96930.38
2023-02-15T01:08:00.219Z,96888.25
2023-02-15T01:10:27.359Z,96854.66
2023-02-15T01:12:53.899Z,96841.06
2023-02-15T01:15:20.346Z,96859.19
2023-02-15T01:17:52.124Z,96867.72
2023-02-15T01:20:21.803Z,96878.09
2023-02-15T01:22:50.597Z,96907.34
2023-02-15T01:25:18.091Z,96916.72
2023-02-15T01:27:44.638Z,96931.41
2023-02-15T01:30:11.853Z,96943.53
2023-02-15T01:32:38.252Z,96977.13
2023-02-15T01:35:04.797Z,97009.69
2023-02-15T01:37:32.341Z,97014.09
2023-02-15T01:39:58.957Z,97017.47
2023-02-15T01:42:25.330Z,97023.47
2023-02-15T01:44:58.710Z,97031.28
2023-02-15T01:47:31.084Z,97033.78
2023-02-15T01:50:19.191Z,97020.00
2023-02-15T01:52:51.875Z,97035.44
2023-02-15T01:55:18.295Z,97039.06
2023-02-15T01:57:44.777Z,97049.50
2023-02-15T02:00:11.823Z,97065.19
2023-02-15T02:02:38.191Z,97075.66
2023-02-15T02:05:07.389Z,97089.66
2023-02-15T02:07:39.241Z,97076.84
2023-02-15T02:10:06.584Z,97077.13
2023-02-15T02:12:33.070Z,97097.25
2023-02-15T02:14:59.445Z,97060.97
2023-02-15T02:17:30.619Z,97017.88
2023-02-15T02:20:06.919Z,96999.91
2023-02-15T02:22:54.928Z,97009.44
2023-02-15T02:25:48.682Z,97029.25
2023-02-15T02:28:18.048Z,97066.38
2023-02-15T02:30:59.827Z,97081.00
2023-02-15T02:33:46.664Z,97108.56
2023-02-15T02:36:45.402Z,97141.34
2023-02-15T02:39:26.975Z,97166.56
2023-02-15T02:42:04.033Z,97136.47
2023-02-15T02:44:35.611Z,97126.94
2023-02-15T02:47:16.161Z,97124.31
2023-02-15T02:49:43.538Z,97118.19
2023-02-15T02:52:37.852Z,97124.19
2023-02-15T02:55:17.720Z,97152.56
2023-02-15T02:57:59.402Z,97173.97
2023-02-15T03:00:26.998Z,97177.25
2023-02-15T03:02:59.381Z,97201.47
2023-02-15T03:05:26.980Z,97198.75
2023-02-15T03:07:53.332Z,97173.63
2023-02-15T03:10:20.259Z,97154.75
2023-02-15T03:12:46.797Z,97194.66
2023-02-15T03:15:20.089Z,97188.56
2023-02-15T03:17:49.138Z,97180.00
2023-02-15T03:20:19.030Z,97181.75
2023-02-15T03:23:05.383Z,97174.81
2023-02-15T03:25:35.683Z,97159.63
2023-02-15T03:28:04.639Z,97144.19
2023-02-15T03:30:32.441Z,97108.06
2023-02-15T03:32:59.910Z,97075.50
2023-02-15T03:35:27.088Z,97048.94
2023-02-15T03:37:59.848Z,97022.38
2023-02-15T03:41:10.365Z,97015.69
2023-02-15T03:43:55.362Z,97003.63
2023-02-15T03:46:29.423Z,96970.94
2023-02-15T03:48:58.529Z,96952.84
2023-02-15T03:51:34.484Z,96945.19
2023-02-15T03:54:35.057Z,96966.56
2023-02-15T03:57:25.044Z,96946.16
2023-02-15T04:00:14.558Z,96921.94
2023-02-15T04:03:05.470Z,96868.84
2023-02-15T04:05:32.031Z,96850.22
2023-02-15T04:07:58.395Z,96833.25
2023-02-15T04:10:43.645Z,96806.91
2023-02-15T04:13:09.980Z,96768.06
2023-02-15T04:15:55.069Z,96753.34
2023-02-15T04:18:21.421Z,96723.31
2023-02-15T04:21:06.391Z,96736.16
2023-02-15T04:23:51.128Z,96733.75
2023-02-15T04:26:17.593Z,96757.78
2023-02-15T04:28:43.953Z,96770.72
2023-02-15T04:31:10.323Z,96788.78
2023-02-15T04:33:36.951Z,96817.97
2023-02-15T04:36:04.901Z,96848.84
2023-02-15T04:38:31.277Z,96883.28
2023-02-15T04:40:57.759Z,96927.97
2023-02-15T04:43:24.160Z,96975.09
2023-02-15T04:45:51.476Z,97011.19
2023-02-15T04:48:18.400Z,97045.56
2023-02-15T04:50:45.231Z,97089.44
2023-02-15T04:53:11.864Z,97120.38
2023-02-15T04:55:38.234Z,97155.56
2023-02-15T04:58:04.569Z,97180.41
2023-02-15T05:00:30.954Z,97202.78
2023-02-15T05:02:57.302Z,97224.16
2023-02-15T05:05:23.647Z,97237.00
2023-02-15T05:07:50.070Z,97248.09
2023-02-15T05:10:16.695Z,97258.41
2023-02-15T05:12:43.030Z,97273.84
2023-02-15T05:15:09.865Z,97297.06
2023-02-15T05:17:36.444Z,97317.75
2023-02-15T05:20:03.098Z,97340.09
2023-02-15T05:22:29.452Z,97374.63
2023-02-15T05:25:18.768Z,97393.47
2023-02-15T05:28:05.249Z,97397.75
2023-02-15T05:30:32.105Z,97406.44
2023-02-15T05:32:58.538Z,97426.19
2023-02-15T05:35:25.002Z,97435.59
2023-02-15T05:37:51.426Z,97429.56
2023-02-15T05:40:17.859Z,97429.66
2023-02-15T05:42:44.227Z,97439.94
2023-02-15T05:45:10.907Z,97432.19
2023-02-15T05:47:37.277Z,97448.53
2023-02-15T05:50:03.803Z,97442.59
2023-02-15T05:52:30.231Z,97470.13
2023-02-15T05:54:56.589Z,97473.50
2023-02-15T05:57:22.948Z,97470.00
2023-02-15T05:59:49.514Z,97469.19
2023-02-15T06:02:15.890Z,97480.38
2023-02-15T06:04:42.335Z,97506.13
2023-02-15T06:07:08.872Z,97513.97
2023-02-15T06:09:35.206Z,97531.13
2023-02-15T06:12:01.586Z,97541.41
2023-02-15T06:14:28.172Z,97544.78
2023-02-15T06:16:54.511Z,97559.44
2023-02-15T06:19:21.908Z,97574.03
2023-02-15T06:21:48.430Z,97579.31
2023-02-15T06:24:14.771Z,97587.09
2023-02-15T06:26:41.187Z,97582.78
2023-02-15T06:29:07.588Z,97590.53
2023-02-15T06:31:34.004Z,97596.53
2023-02-15T06:34:03.426Z,97598.31
2023-02-15T06:36:29.997Z,97603.53
2023-02-15T06:38:56.615Z,97598.31
2023-02-15T06:41:22.995Z,97587.91
2023-02-15T06:43:49.487Z,97575.03
2023-02-15T06:46:15.889Z,97584.47
2023-02-15T06:48:42.327Z,97586.25
2023-02-15T06:51:08.911Z,97577.50
2023-02-15T06:53:36.521Z,97562.94
2023-02-15T06:56:10.370Z,97550.22
2023-02-15T06:58:37.693Z,97556.13
2023-02-15T07:01:04.344Z,97548.41
2023-02-15T07:03:31.114Z,97537.25
2023-02-15T07:05:58.432Z,97532.06
2023-02-15T07:08:25.327Z,97520.97
2023-02-15T07:10:52.593Z,97510.63
2023-02-15T07:13:18.967Z,97514.03
2023-02-15T07:15:45.930Z,97503.78
2023-02-15T07:18:12.332Z,97501.19
2023-02-15T07:20:38.748Z,97481.38
2023-02-15T07:23:05.595Z,97453.88
2023-02-15T07:25:32.328Z,97451.25
2023-02-15T07:27:59.438Z,97419.38
2023-02-15T07:30:25.853Z,97400.41
2023-02-15T07:33:14.966Z,97379.63
2023-02-15T07:35:58.722Z,97345.22
2023-02-15T07:38:26.061Z,97340.09
2023-02-15T07:40:52.455Z,97333.19
2023-02-15T07:43:18.860Z,97322.78
2023-02-15T07:45:45.533Z,97303.84
2023-02-15T07:48:11.884Z,97273.66
2023-02-15T07:50:38.267Z,97228.84
2023-02-15T07:53:05.026Z,97176.38
2023-02-15T07:55:31.377Z,97110.94
2023-02-15T07:57:57.720Z,97061.06
2023-02-15T08:00:25.772Z,97011.94
2023-02-15T08:03:13.892Z,96974.78
2023-02-15T08:05:44.822Z,96909.47
2023-02-15T08:08:29.856Z,96870.66
2023-02-15T08:11:33.873Z,96832.03
2023-02-15T08:14:12.717Z,96812.97
2023-02-15T08:16:56.725Z,96785.38
2023-02-15T08:19:28.402Z,96785.16
2023-02-15T08:21:59.511Z,96772.06
2023-02-15T08:24:27.758Z,96744.38
2023-02-15T08:26:54.262Z,96720.88
2023-02-15T08:29:23.562Z,96711.34
2023-02-15T08:31:51.068Z,96696.63
2023-02-15T08:34:19.049Z,96684.41
2023-02-15T08:36:48.271Z,96683.25
2023-02-15T08:39:15.229Z,96676.31
2023-02-15T08:41:45.685Z,96664.84
2023-02-15T08:44:12.408Z,96657.75
2023-02-15T08:46:40.747Z,96628.34
2023-02-15T08:49:07.401Z,96606.59
2023-02-15T08:51:35.468Z,96576.06
2023-02-15T08:54:10.386Z,96511.78
2023-02-15T08:56:38.778Z,96377.41
2023-02-15T08:59:05.321Z,96240.44
2023-02-15T09:01:33.293Z,96098.41
2023-02-15T09:04:01.490Z,95973.84
2023-02-15T09:06:28.028Z,95880.34
2023-02-15T09:08:55.003Z,95803.38
2023-02-15T09:11:24.729Z,95754.47
2023-02-15T09:13:55.057Z,95691.41
2023-02-15T09:16:22.061Z,95671.91
2023-02-15T09:18:48.696Z,95633.50
2023-02-15T09:21:19.741Z,95564.81
2023-02-15T09:23:47.297Z,95484.84
2023-02-15T09:26:15.155Z,95397.47
2023-02-15T09:28:41.778Z,95346.03
2023-02-15T09:31:16.216Z,95328.84
2023-02-15T09:33:43.371Z,95317.66
2023-02-15T09:36:15.813Z,95327.38
2023-02-15T09:38:42.361Z,95308.72
2023-02-15T09:41:14.769Z,95324.59
2023-02-15T09:44:24.766Z,95383.19
2023-02-15T09:47:28.667Z,95543.16
2023-02-15T09:50:04.294Z,95748.56
2023-02-15T09:52:49.231Z,95920.56
2023-02-15T09:55:50.042Z,96127.50
2023-02-15T09:58:41.275Z,96321.97
2023-02-15T10:01:20.452Z,96480.47
2023-02-15T10:04:11.355Z,96669.59
2023-02-15T10:07:07.497Z,96874.28
2023-02-15T10:09:52.272Z,97032.69
2023-02-15T10:12:37.445Z,97092.50
2023-02-15T10:15:22.134Z,97162.88
2023-02-15T10:17:58.945Z,97229.59
2023-02-15T10:20:40.571Z,97299.50
2023-02-15T10:23:28.552Z,97335.50
2023-02-15T10:26:16.901Z,97409.72
2023-02-15T10:28:52.594Z,97453.28
2023-02-15T10:31:28.885Z,97480.44
2023-02-15T10:34:16.422Z,97463.25
2023-02-15T10:37:11.723Z,97480.38
2023-02-15T10:40:06.195Z,97498.84
2023-02-15T10:42:38.448Z,97521.44
2023-02-15T10:45:24.953Z,97525.31
2023-02-15T10:48:09.671Z,97493.66
2023-02-15T10:50:40.854Z,97519.84
2023-02-15T10:53:16.270Z,97538.25
2023-02-15T10:56:23.343Z,97557.16
2023-02-15T10:59:23.900Z,97551.06
2023-02-15T11:01:52.611Z,97594.16
2023-02-15T11:04:44.063Z,97569.94
2023-02-15T11:07:28.962Z,97576.47
2023-02-15T11:10:07.980Z,97634.63
2023-02-15T11:12:34.402Z,97653.63
2023-02-15T11:15:05.477Z,97682.84
2023-02-15T11:17:36.701Z,97750.25
2023-02-15T11:20:28.269Z,97841.09
2023-02-15T11:22:54.687Z,97826.97
2023-02-15T11:25:25.225Z,97951.97
2023-02-15T11:27:51.652Z,97980.81
2023-02-15T11:30:21.487Z,98093.63
2023-02-15T11:32:51.019Z,98190.31
2023-02-15T11:35:28.282Z,98436.41
2023-02-15T11:38:17.813Z,98449.75
2023-02-15T11:40:46.578Z,98461.72
2023-02-15T11:43:16.419Z,98521.31
2023-02-15T11:45:42.817Z,98522.69
2023-02-15T11:48:10.966Z,98490.97
2023-02-15T11:50:37.391Z,98573.34
2023-02-15T11:53:12.145Z,98509.63
2023-02-15T11:55:38.546Z,98425.41
2023-02-15T11:58:30.125Z,98448.78
2023-02-15T12:01:10.125Z,98404.34
2023-02-15T12:03:42.795Z,98388.50
2023-02-15T12:06:14.590Z,98330.34
2023-02-15T12:08:43.070Z,98356.63
2023-02-15T12:11:22.172Z,98442.09
2023-02-15T12:14:00.602Z,98476.84
2023-02-15T12:16:28.323Z,98508.22
2023-02-15T12:18:57.047Z,98507.19
2023-02-15T12:21:31.772Z,98540.25
2023-02-15T12:24:01.548Z,98471.78
2023-02-15T12:26:29.668Z,98520.28
2023-02-15T12:28:59.586Z,98621.81
2023-02-15T12:31:27.821Z,98597.28
2023-02-15T12:33:55.564Z,98662.78
2023-02-15T12:36:31.259Z,98611.13
2023-02-15T12:39:04.661Z,98574.66
2023-02-15T12:41:31.058Z,98558.97
2023-02-15T12:44:16.687Z,98608.25
2023-02-15T12:46:43.142Z,98677.28
2023-02-15T12:49:20.926Z,98653.81
2023-02-15T12:52:01.621Z,98668.75
2023-02-15T12:54:35.349Z,98743.13
2023-02-15T12:57:13.381Z,98682.78
2023-02-15T12:59:49.409Z,98652.97
2023-02-15T13:02:37.990Z,98618.63
2023-02-15T13:05:10.574Z,98767.41
2023-02-15T13:07:36.954Z,98872.09
2023-02-15T13:10:03.502Z,98727.44
2023-02-15T13:12:31.625Z,98697.63
2023-02-15T13:14:58.243Z,98745.88
2023-02-15T13:17:30.272Z,98864.63
2023-02-15T13:20:09.631Z,98964.78
2023-02-15T13:22:44.192Z,98893.44
2023-02-15T13:25:14.186Z,98984.25
2023-02-15T13:27:41.237Z,99138.34
2023-02-15T13:30:36.038Z,99115.28
2023-02-15T13:33:10.023Z,99066.31
2023-02-15T13:35:50.715Z,98986.19
2023-02-15T13:38:20.107Z,98976.50
2023-02-15T13:40:52.092Z,98990.34
2023-02-15T13:43:46.994Z,99077.56
2023-02-15T13:46:32.398Z,99041.03
2023-02-15T13:49:25.391Z,98995.59
2023-02-15T13:52:10.069Z,98943.22
2023-02-15T13:54:48.597Z,98759.09
2023-02-15T13:57:34.370Z,98733.97
2023-02-15T14:00:19.121Z,98830.72
2023-02-15T14:03:10.826Z,98824.31
2023-02-15T14:05:42.925Z,98769.03
2023-02-15T14:08:32.735Z,98885.31
2023-02-15T14:11:08.880Z,98913.34
2023-02-15T14:13:57.724Z,98971.75
2023-02-15T14:17:07.201Z,99030.69
2023-02-15T14:19:46.906Z,98918.25
2023-02-15T14:22:13.607Z,98952.75
2023-02-15T14:24:45.355Z,98942.00
2023-02-15T14:27:24.336Z,98997.28
2023-02-15T14:30:01.068Z,99027.47
2023-02-15T14:32:33.580Z,99142.09
2023-02-15T14:35:04.862Z,99103.78
2023-02-15T14:37:41.071Z,98981.88
2023-02-15T14:40:50.047Z,99044.28
2023-02-15T14:43:43.032Z,98970.03
2023-02-15T14:46:32.498Z,98912.75
2023-02-15T14:49:13.899Z,98932.31
2023-02-15T14:51:50.369Z,98922.13
2023-02-15T14:54:19.774Z,98844.25
2023-02-15T14:56:46.609Z,98872.25
2023-02-15T14:59:12.947Z,98908.34
2023-02-15T15:01:39.653Z,98885.81
2023-02-15T15:04:10.862Z,98855.56
2023-02-15T15:06:38.712Z,98831.59
2023-02-15T15:09:26.565Z,98824.97
2023-02-15T15:11:53.837Z,98812.38
2023-02-15T15:14:32.658Z,98816.91
2023-02-15T15:17:00.211Z,98809.38
2023-02-15T15:19:52.733Z,98772.13
2023-02-15T15:22:19.784Z,98784.47
2023-02-15T15:24:46.248Z,98789.53
2023-02-15T15:27:54.957Z,98727.88
2023-02-15T15:30:24.569Z,98778.28
2023-02-15T15:32:53.729Z,98800.91
2023-02-15T15:35:57.729Z,98845.34
2023-02-15T15:38:48.758Z,98831.00
2023-02-15T15:41:18.997Z,98833.78
2023-02-15T15:44:13.693Z,98824.56
2023-02-15T15:47:07.337Z,98775.69
2023-02-15T15:49:33.826Z,98784.53
2023-02-15T15:52:04.506Z,98751.56
2023-02-15T15:54:31.123Z,98741.56
2023-02-15T15:56:59.273Z,98724.81
2023-02-15T15:59:27.513Z,98675.78
2023-02-15T16:01:53.976Z,98642.28
2023-02-15T16:04:27.032Z,98597.09
2023-02-15T16:06:53.457Z,98595.44
2023-02-15T16:09:22.179Z,98554.00
2023-02-15T16:11:53.353Z,98551.94
2023-02-15T16:14:32.882Z,98480.00
2023-02-15T16:17:00.714Z,98467.09
2023-02-15T16:19:29.125Z,98463.09
2023-02-15T16:21:55.765Z,98433.81
2023-02-15T16:24:25.927Z,98418.63
2023-02-15T16:27:04.586Z,98377.38
2023-02-15T16:29:32.628Z,98325.09
2023-02-15T16:32:06.871Z,98280.78
2023-02-15T16:34:33.661Z,98236.19
2023-02-15T16:37:16.485Z,98219.16
2023-02-15T16:39:43.277Z,98146.66
2023-02-15T16:42:10.275Z,98052.44
2023-02-15T16:44:36.658Z,97999.06
2023-02-15T16:47:03.066Z,97930.91
2023-02-15T16:49:30.094Z,97873.28
2023-02-15T16:52:00.563Z,97797.19
2023-02-15T16:54:26.964Z,97697.53
2023-02-15T16:56:53.399Z,97618.47
2023-02-15T16:59:44.425Z,97554.84
2023-02-15T17:02:37.233Z,97484.78
2023-02-15T17:05:12.720Z,97424.59
2023-02-15T17:07:43.390Z,97497.47
2023-02-15T17:10:33.943Z,97601.72
2023-02-15T17:13:05.126Z,97650.16
2023-02-15T17:15:35.926Z,97682.22
2023-02-15T17:18:16.485Z,97684.75
2023-02-15T17:20:43.195Z,97708.97
2023-02-15T17:23:31.408Z,97727.78
2023-02-15T17:25:58.569Z,97723.88
2023-02-15T17:28:26.428Z,97737.34
2023-02-15T17:30:53.425Z,97695.78
2023-02-15T17:33:21.228Z,97601.53
2023-02-15T17:36:03.703Z,97540.72
2023-02-15T17:38:30.093Z,97510.91
2023-02-15T17:40:57.284Z,97431.63
2023-02-15T17:43:23.656Z,97378.81
2023-02-15T17:45:50.877Z,97347.72
2023-02-15T17:48:21.968Z,97279.28
2023-02-15T17:50:48.337Z,97229.94
2023-02-15T17:53:16.874Z,97156.22
2023-02-15T17:55:43.499Z,97074.16
2023-02-15T17:58:11.952Z,97016.38
2023-02-15T18:01:14.787Z,96984.16
2023-02-15T18:04:07.007Z,96944.72
2023-02-15T18:06:52.482Z,96926.03
2023-02-15T18:09:38.465Z,96910.88
2023-02-15T18:12:21.115Z,96886.31
2023-02-15T18:14:47.615Z,96864.13
2023-02-15T18:17:14.146Z,96858.13
2023-02-15T18:19:41.213Z,96840.34
2023-02-15T18:22:15.614Z,96817.41
2023-02-15T18:24:42.171Z,96810.94
2023-02-15T18:27:08.557Z,96797.44
2023-02-15T18:29:34.929Z,96726.94
2023-02-15T18:32:01.409Z,96679.00
2023-02-15T18:34:32.884Z,96571.16
2023-02-15T18:37:00.769Z,96527.09
2023-02-15T18:39:30.116Z,96550.41
2023-02-15T18:41:56.569Z,96600.91
2023-02-15T18:44:23.164Z,96659.75
2023-02-15T18:46:49.735Z,96717.84
2023-02-15T18:49:16.080Z,96741.22
2023-02-15T18:51:43.241Z,96718.25
2023-02-15T18:54:20.249Z,96633.03
2023-02-15T18:56:49.255Z,96592.72
2023-02-15T18:59:16.684Z,96591.66
2023-02-15T19:01:43.330Z,96573.00
2023-02-15T19:04:09.722Z,96547.13
2023-02-15T19:06:36.159Z,96517.69
2023-02-15T19:09:02.569Z,96533.66
2023-02-15T19:11:29.626Z,96540.41
2023-02-15T19:13:56.008Z,96537.09
2023-02-15T19:16:26.514Z,96512.66
2023-02-15T19:18:53.014Z,96496.69
2023-02-15T19:21:19.422Z,96488.28
2023-02-15T19:23:59.513Z,96471.41
2023-02-15T19:26:39.692Z,96467.47
2023-02-15T19:29:10.928Z,96423.47
2023-02-15T19:31:37.372Z,96382.63
2023-02-15T19:34:16.887Z,96320.53
2023-02-15T19:36:44.203Z,96284.03
2023-02-15T19:39:33.665Z,96248.63
2023-02-15T19:42:00.098Z,96237.78
2023-02-15T19:44:26.511Z,96279.56
2023-02-15T19:46:52.943Z,96285.13
2023-02-15T19:49:19.333Z,96310.72
2023-02-15T19:51:45.985Z,96347.59
2023-02-15T19:54:31.850Z,96337.78
2023-02-15T19:56:58.296Z,96360.78
2023-02-15T19:59:29.635Z,96362.00
2023-02-15T20:01:56.310Z,96339.88
2023-02-15T20:04:23.159Z,96323.81
2023-02-15T20:06:50.036Z,96307.59
2023-02-15T20:09:40.693Z,96300.97
2023-02-15T20:12:19.715Z,96269.78
2023-02-15T20:14:46.166Z,96177.09
2023-02-15T20:17:12.542Z,96107.31
2023-02-15T20:19:40.129Z,96053.75
2023-02-15T20:22:07.090Z,96030.59
2023-02-15T20:24:33.507Z,96040.53
2023-02-15T20:27:00.200Z,96097.38
2023-02-15T20:29:26.586Z,96203.28
2023-02-15T20:31:55.386Z,96251.53
2023-02-15T20:34:21.973Z,96263.06
2023-02-15T20:36:48.351Z,96284.13
2023-02-15T20:39:16.514Z,96281.72
2023-02-15T20:41:48.824Z,96411.97
2023-02-15T20:44:29.172Z,96430.41
2023-02-15T20:46:57.572Z,96434.84
2023-02-15T20:49:24.497Z,96444.41
2023-02-15T20:51:52.319Z,96462.88
2023-02-15T20:54:23.425Z,96471.72
2023-02-15T20:56:49.918Z,96466.72
2023-02-15T20:59:36.873Z,96465.16
2023-02-15T21:02:20.062Z,96454.19
2023-02-15T21:04:46.633Z,96467.47
2023-02-15T21:07:20.236Z,96452.16
2023-02-15T21:09:46.702Z,96435.84
2023-02-15T21:12:17.674Z,96442.13
2023-02-15T21:14:44.223Z,96422.47
2023-02-15T21:17:12.039Z,96402.56
2023-02-15T21:19:40.782Z,96399.25
2023-02-15T21:22:09.712Z,96381.94
2023-02-15T21:24:36.100Z,96391.53
2023-02-15T21:27:03.012Z,96393.44
2023-02-15T21:29:29.702Z,96409.00
2023-02-15T21:31:58.315Z,96410.13
2023-02-15T21:34:24.819Z,96404.97
2023-02-15T21:36:51.331Z,96409.28
2023-02-15T21:39:24.915Z,96406.78
2023-02-15T21:42:12.426Z,96420.78
2023-02-15T21:44:57.564Z,96436.63
2023-02-15T21:47:47.489Z,96428.16
2023-02-15T21:50:40.702Z,96425.00
2023-02-15T21:53:09.839Z,96412.88
2023-02-15T21:55:36.212Z,96393.78
2023-02-15T21:58:02.691Z,96343.22
2023-02-15T22:00:29.514Z,96112.22
2023-02-15T22:02:58.026Z,95947.84
2023-02-15T22:05:33.139Z,95945.50
2023-02-15T22:07:59.861Z,96067.22
2023-02-15T22:10:31.514Z,96274.31
2023-02-15T22:13:00.159Z,96537.47
2023-02-15T22:15:27.287Z,96726.25
2023-02-15T22:17:53.984Z,96851.25
2023-02-15T22:20:22.005Z,96918.25
2023-02-15T22:22:48.630Z,96979.63
2023-02-15T22:25:16.467Z,97037.09
2023-02-15T22:27:42.968Z,97088.84
2023-02-15T22:30:33.522Z,97133.75
2023-02-15T22:33:00.358Z,97162.25
2023-02-15T22:35:27.631Z,97172.72
2023-02-15T22:37:54.164Z,97188.34
2023-02-15T22:40:20.802Z,97192.75
2023-02-15T22:42:49.281Z,97191.09
2023-02-15T22:45:17.214Z,97198.13
2023-02-15T22:47:43.569Z,97196.47
2023-02-15T22:50:24.232Z,97188.78
2023-02-15T22:52:50.730Z,97177.72
2023-02-15T22:55:18.090Z,97173.31
2023-02-15T22:57:45.641Z,97169.06
2023-02-15T23:00:17.286Z,97166.53
2023-02-15T23:02:43.900Z,97165.63
2023-02-15T23:05:16.951Z,97160.50
2023-02-15T23:07:43.411Z,97167.38
2023-02-15T23:10:21.015Z,97170.88
2023-02-15T23:13:10.150Z,97172.75
2023-02-15T23:15:36.686Z,97167.38
2023-02-15T23:18:19.243Z,97162.19
2023-02-15T23:20:46.889Z,97152.66
2023-02-15T23:23:13.599Z,97163.88
2023-02-15T23:25:40.383Z,97162.94
2023-02-15T23:28:16.373Z,97163.88
2023-02-15T23:30:42.721Z,97156.84
2023-02-15T23:33:11.364Z,97162.88
2023-02-15T23:35:37.958Z,97174.03
2023-02-15T23:38:06.180Z,97159.69
2023-02-15T23:40:51.249Z,97148.50
2023-02-15T23:43:20.472Z,97141.44
2023-02-15T23:45:46.871Z,97145.63
2023-02-15T23:48:31.538Z,97142.22
2023-02-15T23:50:58.588Z,97148.31
2023-02-15T23:53:25.115Z,97157.00
2023-02-15T23:55:51.483Z,97149.22
2023-02-15T23:58:19.468Z,97150.91
